Last 30 Days

Alpine-Scott Top 8120'

Daily Data | America/Los_Angeles
as of 3/29/20 2:19 PM PDT
Date Daily Max Temp (°F) Max Temp Time Daily Min Temp (°F) Min Temp Time Wind Spd (mph) Wind Gust (mph) Wind Gst Dir (°) Wind Gst Time Wet Bulb (°F) WetB Hrs <28F (hrs) Max RH (%) Min RH (%) Bat Volt Min Day (V)
3/28/20 28.1 1411 18.0 0100 8.2 22.2 SSW | 210 1807 22.3 24.0 97 83 11.3
3/27/20 25.7 1303 15.4 0502 7.3 30.4 SW | 218 1630 19.4 24.0 96 92 11.3
3/26/20 26.6 1335 12.8 0645 3.4 17.3 N | 10 1809 16.7 24.0 97 93 11.3
3/25/20 20.6 1144 13.5 2330 13.0 31.3 SW | 223 0029 16.7 24.0 96 93 11.3
3/24/20 25.8 0011 19.5 2359 19.2 43.4 SSW | 211 1946 22.5 24.0 97 96 11.3
3/23/20 27.7 0949 25.2 2353 21.5 43.4 SSW | 210 1842 26.4 14.9 97 96 11.3
3/22/20 43.4 1422 25.2 0652 4.3 13.8 SSW | 199 1700 27.5 17.0 98 42 11.3
3/21/20 41.8 1601 23.6 0001 3.3 15.4 NE | 37 1253 26.9 16.1 98 39 11.3
3/20/20 32.0 1648 19.2 0601 3.4 14.9 NE | 53 2246 23.5 21.8 96 87 11.3
3/19/20 33.1 1718 16.0 0607 1.0 10.0 E | 101 1412 21.0 22.7 96 90 11.3
3/18/20 21.9 1658 16.7 0020 0.0 2.4 SSW | 206 1403 18.2 24.0 96 94 11.3
3/17/20 19.5 0001 13.5 0723 0.0 0.0 SW | 219 0001 16.0 24.0 95 93 11.3
3/16/20 28.5 1429 19.4 2354 4.0 27.0 S | 175 0353 22.6 24.0 97 93 11.3
3/15/20 23.4 0943 19.3 1901 14.5 44.0 SSE | 160 0400 21.0 24.0 96 94 11.3
3/14/20 28.3 0001 19.8 2153 19.0 48.6 SE | 140 0042 22.6 24.0 96 94 11.3
3/13/20 39.7 1129 28.3 0001 16.6 65.7 SSW | 194 2205 29.2 8.1 97 33 11.3
3/12/20 36.0 2143 34.3 2220 7.3 17.1 NE | 46 2322 26.3 2.3 38 33 11.4
3/11/20 47.5 1646 31.7 0612 3.3 14.6 E | 79 0106 33.5 0.0 80 45 11.3
3/10/20 43.6 1636 27.6 0756 5.0 22.4 E | 96 1322 30.0 7.7 91 46 11.3
3/9/20 36.5 1454 22.4 0551 7.3 27.4 SW | 221 0151 26.7 13.7 97 45 11.3
3/8/20 30.4 1327 22.1 0624 7.4 21.6 E | 87 1910 24.6 17.5 97 78 11.3
3/7/20 33.6 0005 22.7 1822 17.0 45.0 SSE | 159 0233 24.7 21.6 96 6 11.3
3/6/20 44.1 1402 33.2 2326 16.0 34.2 SSE | 158 2205 31.3 0.0 75 38 11.4
3/5/20 47.3 1451 38.2 2342 11.5 33.1 S | 178 2148 33.7 0.0 74 20 11.4
3/4/20 53.4 1142 37.3 0553 4.0 16.5 SSW | 210 1446 33.5 0.0 56 18 11.3
3/3/20 48.7 1505 28.8 0146 7.0 26.2 ENE | 67 0012 31.2 6.3 85 34 11.3
3/2/20 32.1 1601 14.6 0444 10.8 33.0 NNE | 25 0404 19.7 24.0 84 34 11.3
3/1/20 22.6 1225 15.5 2116 7.4 25.6 NNE | 28 2245 17.1 24.0 95 75 11.3
2/29/20 37.1 1351 21.9 2358 20.6 47.5 SSW | 205 1129 26.8 12.7 95 33 11.3
2/28/20 44.8 1452 33.5 2228 12.9 33.0 SSW | 203 1115 31.1 0.6 79 12 11.3
Max 53.4 - 38.2 - 21.5 65.7 - - 33.7 24.0 98 96 11.4
Avg - - - - 9.2 27.6 - - 24.8 - - - -
Min 19.5 - 12.8 - 0.0 0.0 - - 16.0 0.0 38 6 11.3